Flight Track Log - Related Links

Times and Time Zones

All times are in EDT time to prevent confusion due to time zone crossing. See the SWA59 flight status page for this flight to view local times or setup timezone preferences in your user account.


Time Position Orientation Groundspeed Altitude Reporting Facility
EDT Latitude Longitude Course Direction KTS MPH feet Rate Location/Type
Wed 06:14:58 PM 39.8833 -75.2167 67° East 141 162 1,000  Level Philadelphia TRACON
Wed 06:15:58 PM 39.9000 -75.1667 67° East 192 221 3,500 2,900 Climbing Philadelphia TRACON
Wed 06:16:58 PM 39.9500 -75.1500 14° North 226 260 6,800 2,952 Climbing Philadelphia TRACON
Wed 06:18:04 PM 40.0000 -75.2167 314° West 291 335 9,700 1,606 Climbing Philadelphia TRACON
Wed 06:20:16 PM 39.9556 -75.4639 257° West 359 413 12,100 835 Climbing New York Center
Wed 06:21:18 PM 39.9292 -75.6003 256° West 369 425 12,400 1,686 Climbing New York Center
Wed 06:22:17 PM 39.9158 -75.7183 262° West 374 430 15,500 3,025 Climbing New York Center
Wed 06:23:17 PM 39.9156 -75.8753 270° West 380 437 18,400 2,826 Climbing New York Center
Wed 06:24:18 PM 39.9131 -76.0267 269° West 396 456 21,200 2,705 Climbing New York Center
Wed 06:25:19 PM 39.9081 -76.1808 268° West 417 480 23,900 1,932 Climbing New York Center
Wed 06:26:16 PM 39.9131 -76.3408 272° West 433 498 25,000 559 Climbing New York Center
Wed 06:27:17 PM 39.9372 -76.4889 282° West 430 495 25,000 347 Level New York Center
Wed 06:28:17 PM 39.9864 -76.6339 294° West 430 495 25,700 836 Climbing New York Center
Wed 06:29:19 PM 40.0375 -76.7792 295° West 435 501 26,700 1,008 Climbing New York Center
Wed 06:30:16 PM 40.0714 -76.9342 286° West 441 507 27,700 966 Climbing New York Center
Wed 06:31:17 PM 40.0858 -77.0928 277° West 447 514 28,600 992 Climbing New York Center
Wed 06:32:17 PM 40.0853 -77.2583 270° West 452 520 29,700 1,462 Climbing New York Center
Wed 06:33:16 PM 40.0861 -77.4322 270° West 466 536 31,500 1,914 Climbing New York Center
Wed 06:35:22 PM 40.0908 -77.7742 271° West 471 542 35,600 1,459 Climbing Cleveland Center
Wed 06:36:21 PM 40.0886 -77.9372 269° West 471 542 36,000 202 Climbing Cleveland Center
Wed 06:37:21 PM 40.0881 -78.1000 270° West 461 531 36,000  Level Cleveland Center
Wed 06:38:21 PM 40.0872 -78.2603 270° West 456 525 36,000  Level Cleveland Center
Wed 06:39:22 PM 40.0883 -78.4231 271° West 451 519 36,000  Level Cleveland Center
Wed 06:40:22 PM 40.0872 -78.5831 270° West 451 519 36,000  Level Cleveland Center
Wed 06:41:21 PM 40.0900 -78.7458 271° West 451 519 36,000  Level Cleveland Center
Wed 06:42:21 PM 40.0881 -78.9061 269° West 451 519 36,000  Level Cleveland Center
Wed 06:43:21 PM 40.0864 -79.0689 269° West 451 519 36,000  Level Cleveland Center
Wed 06:44:21 PM 40.0864 -79.2372 270° West 456 525 36,000  Level Cleveland Center
Wed 06:45:22 PM 40.0881 -79.3972 271° West 456 525 36,000  Level Cleveland Center
Wed 06:46:21 PM 40.0856 -79.5600 269° West 456 525 36,000  Level Cleveland Center
Wed 06:47:21 PM 40.0847 -79.7256 270° West 456 525 36,000  Level Cleveland Center
Wed 06:48:22 PM 40.0817 -79.8911 269° West 456 525 36,000  Level Cleveland Center
Wed 06:49:21 PM 40.0806 -80.0731 270° West 461 531 36,000  Level Cleveland Center
Wed 06:50:21 PM 40.0769 -80.2386 268° West 461 531 36,000  Level Cleveland Center
Wed 06:51:22 PM 40.0753 -80.4014 269° West 461 531 36,000  Level Cleveland Center
Wed 06:52:21 PM 40.0714 -80.5642 268° West 456 525 36,000  Level Cleveland Center
Wed 06:54:38 PM 40.0628 -80.9353 268° West 451 519 36,000  Level Indianapolis Center
Wed 06:55:40 PM 40.0586 -81.1017 268° West 453 521 36,000  Level Indianapolis Center
Wed 06:56:42 PM 40.0547 -81.2678 268° West 454 522 36,000  Level Indianapolis Center
Wed 06:57:44 PM 40.0500 -81.4356 268° West 457 526 36,000  Level Indianapolis Center
Wed 06:58:46 PM 40.0458 -81.6019 268° West 456 525 36,000  Level Indianapolis Center
Wed 06:59:48 PM 40.0403 -81.7675 268° West 453 521 36,000  Level Indianapolis Center
Wed 07:00:50 PM 40.0356 -81.9339 268° West 451 519 36,000  Level Indianapolis Center
Wed 07:01:52 PM 40.0306 -82.0969 268° West 448 516 36,000  Level Indianapolis Center
Wed 07:02:54 PM 40.0247 -82.2858 268° West 445 512 36,000  Level Indianapolis Center
Wed 07:03:56 PM 40.0194 -82.4469 268° West 442 509 36,000  Level Indianapolis Center
Wed 07:04:58 PM 40.0133 -82.6078 267° West 442 509 36,000  Level Indianapolis Center
Wed 07:06:00 PM 40.0067 -82.7678 267° West 440 506 36,000  Level Indianapolis Center
Wed 07:07:02 PM 40.0014 -82.9275 268° West 438 504 36,000  Level Indianapolis Center
Wed 07:08:05 PM 39.9950 -83.0881 267° West 441 507 36,000  Level Indianapolis Center
Wed 07:09:06 PM 39.9872 -83.2753 267° West 442 509 36,000  Level Indianapolis Center
Wed 07:10:09 PM 39.9814 -83.4336 267° West 441 507 36,000  Level Indianapolis Center
Wed 07:11:10 PM 39.9731 -83.5911 266° West 441 507 36,000  Level Indianapolis Center
Wed 07:12:12 PM 39.9658 -83.7481 267° West 436 502 36,000  Level Indianapolis Center
Wed 07:13:14 PM 39.9583 -83.9064 267° West 436 502 36,000  Level Indianapolis Center
Wed 07:14:16 PM 39.9492 -84.0906 266° West 435 501 36,000  Level Indianapolis Center
Wed 07:15:18 PM 39.9414 -84.2461 266° West 431 496 36,000  Level Indianapolis Center
Wed 07:16:20 PM 39.9336 -84.4025 266° West 428 493 36,000  Level Indianapolis Center
Wed 07:17:22 PM 39.9247 -84.5594 266° West 431 496 36,000  Level Indianapolis Center
Wed 07:18:24 PM 39.9167 -84.7150 266° West 428 493 36,000  Level Indianapolis Center
Wed 07:19:26 PM 39.9078 -84.8711 266° West 430 495 36,000  Level Indianapolis Center
Wed 07:20:28 PM 39.8942 -85.0414 264° West 425 489 36,000  Level Indianapolis Center
Wed 07:21:30 PM 39.8694 -85.1917 258° West 423 487 36,000  Level Indianapolis Center
Wed 07:22:32 PM 39.8456 -85.3431 258° West 423 487 36,000  Level Indianapolis Center
Wed 07:23:34 PM 39.8219 -85.4944 259° West 425 489 36,000  Level Indianapolis Center
Wed 07:24:36 PM 39.7986 -85.6447 259° West 422 486 36,000  Level Indianapolis Center
Wed 07:25:38 PM 39.7750 -85.7947 258° West 422 486 36,000  Level Indianapolis Center
Wed 07:26:40 PM 39.7469 -85.9694 258° West 419 482 36,000  Level Indianapolis Center
Wed 07:27:41 PM 39.7222 -86.1183 258° West 419 482 36,000  Level Indianapolis Center
Wed 07:28:43 PM 39.6975 -86.2706 258° West 422 486 36,000  Level Indianapolis Center
Wed 07:29:45 PM 39.6714 -86.4292 258° West 423 487 36,000  Level Indianapolis Center
Wed 07:30:47 PM 39.6464 -86.5794 258° West 422 486 36,000  Level Indianapolis Center
Wed 07:31:49 PM 39.6222 -86.7272 258° West 418 481 36,000 -242 Level Indianapolis Center
Wed 07:32:51 PM 39.5978 -86.8747 258° West 416 479 35,500 -683 Descending Indianapolis Center
Wed 07:33:52 PM 39.5717 -87.0211 257° West 414 476 34,600 -927 Descending Indianapolis Center
Wed 07:34:54 PM 39.5461 -87.1706 258° West 421 484 33,600 -968 Descending Indianapolis Center
Wed 07:35:56 PM 39.5192 -87.3225 257° West 429 494 32,600 -919 Descending Indianapolis Center
Wed 07:36:58 PM 39.4925 -87.4769 257° West 437 503 31,700 -968 Descending Indianapolis Center
Wed 07:38:00 PM 39.4597 -87.6614 257° West 447 514 30,600 -1,024 Descending Indianapolis Center
Wed 07:39:01 PM 39.4317 -87.8222 257° West 455 524 29,600 -1,122 Descending Indianapolis Center
Wed 07:40:03 PM 39.4022 -87.9850 257° West 461 531 28,300 -1,169 Descending Indianapolis Center
Wed 07:40:18 PM 39.3944 -88.0331 258° West 453 521 28,100 -234 Descending Kansas City Center
Wed 07:41:20 PM 39.3578 -88.1933 254° West 458 527 28,000 -48 Descending Kansas City Center
Wed 07:42:22 PM 39.3119 -88.3500 249° West 461 531 28,000  Level Kansas City Center
Wed 07:43:24 PM 39.2722 -88.5014 251° West 450 518 28,000  Level Kansas City Center
Wed 07:44:26 PM 39.2322 -88.6467 250° West 445 512 28,000  Level Kansas City Center
Wed 07:45:27 PM 39.1925 -88.7986 251° West 448 516 28,000  Level Kansas City Center
Wed 07:46:29 PM 39.1453 -88.9708 251° West 437 503 28,000 -1,113 Level Kansas City Center
Wed 07:47:31 PM 39.1081 -89.1094 251° West 413 475 25,700 -2,371 Descending Kansas City Center
Wed 07:48:33 PM 39.0725 -89.2542 252° West 397 457 23,100 -2,371 Descending Kansas City Center
Wed 07:49:35 PM 39.0428 -89.3858 254° West 387 445 20,800 -2,274 Descending Kansas City Center
Wed 07:50:37 PM 39.0117 -89.5242 254° West 377 434 18,400 -2,293 Descending Kansas City Center
Wed 07:51:38 PM 38.9797 -89.6489 252° West 371 427 16,100 -1,707 Descending Kansas City Center
Wed 07:52:40 PM 38.9419 -89.7678 248° West 364 419 14,900 -1,403 Descending Kansas City Center
Wed 07:53:42 PM 38.9108 -89.8661 248° West 348 400 13,200 -2,032 Descending Kansas City Center
Wed 07:54:44 PM 38.8678 -89.9986 247° West 338 389 10,700 -1,707 Descending Kansas City Center
Wed 07:55:45 PM 38.8356 -90.1022 248° West 323 372 9,700 -1,122 Descending Kansas City Center
Wed 07:56:47 PM 38.8181 -90.1978 257° West 290 334 8,400 -1,161 Descending Kansas City Center
Wed 07:57:49 PM 38.8328 -90.2906 282° West 279 321 7,300 -919 Descending Kansas City Center
Wed 07:58:51 PM 38.8644 -90.3703 297° West 265 305 6,500 -1,806 Descending Kansas City Center
Wed 07:59:32 PM 38.8667 -90.4333 273° West 227 261 4,200 -3,049 Descending Gateway (St. Louis) TRACON
Wed 07:59:52 PM 38.8514 -90.4547 227° Southwest 237 273 3,400 -1,390 Descending Kansas City Center
Wed 08:00:54 PM 38.8025 -90.4636 188° South 203 234 2,300 -871 Descending Kansas City Center
Wed 08:01:56 PM 38.7803 -90.4242 126° Southeast 159 183 1,600 -677 Descending Kansas City Center
Wed 08:02:58 PM 38.7614 -90.3861 122° Southeast 138 159 900 -677 Descending Kansas City Center
Wed 08:04:00 PM 38.7487 -90.3700 169° South  Level Estimated

Login

Don't have an account? Register now (free) for customized features, flight alerts, and more!